Time;durP1;ratioP1;P1;durP2;ratioP2;P2;SDS_P1;SDS_P2;PMS_P1;PMS_P2;Temp;Humidity;BMP_temperature;BMP_pressure;BME280_temperature;BME280_humidity;BME280_pressure;Samples;Min_cycle;Max_cycle;Signal;HPM_P1;HPM_P2
2022/10/29 00:00:53;;;;;;;8.15;1.83;;;;;;;17.99;50.46;101975.34;4976010;28;20031;-47
2022/10/29 00:03:20;;;;;;;4.30;1.60;;;;;;;17.91;50.20;101976.47;4982099;28;20114;-46
2022/10/29 00:05:57;;;;;;;5.97;1.80;;;;;;;17.93;49.80;101968.94;4991299;28;20037;-46
2022/10/29 00:08:23;;;;;;;7.88;2.15;;;;;;;17.69;50.28;101970.66;4991007;28;20029;-47
2022/10/29 00:10:50;;;;;;;6.03;1.67;;;;;;;17.90;49.91;101977.53;4989936;28;20031;-46
2022/10/29 00:13:16;;;;;;;6.32;1.65;;;;;;;17.54;50.25;101971.03;4986505;28;20106;-47
2022/10/29 00:15:43;;;;;;;5.53;1.25;;;;;;;17.46;50.72;101982.16;4992507;28;20042;-46
2022/10/29 00:18:09;;;;;;;6.13;1.60;;;;;;;17.33;50.97;101979.59;4993591;28;20037;-46
2022/10/29 00:20:35;;;;;;;8.32;1.92;;;;;;;17.37;50.91;101980.78;4991939;28;20019;-47
2022/10/29 00:23:01;;;;;;;6.65;1.67;;;;;;;17.19;51.71;101978.06;4985780;28;20399;-45
2022/10/29 00:25:27;;;;;;;5.68;2.00;;;;;;;17.20;52.29;101977.00;4974679;28;20101;-47
2022/10/29 00:27:55;;;;;;;7.63;1.95;;;;;;;17.09;52.98;101984.78;4993751;28;20126;-48
2022/10/29 00:30:21;;;;;;;4.82;1.80;;;;;;;17.05;53.76;101991.72;4994559;23;20386;-47
2022/10/29 00:32:48;;;;;;;11.50;2.15;;;;;;;16.67;54.75;101986.34;4990028;28;20043;-46
2022/10/29 00:35:14;;;;;;;9.65;1.90;;;;;;;16.50;56.10;101990.63;4974336;28;20027;-48
2022/10/29 00:37:40;;;;;;;5.80;2.25;;;;;;;16.39;57.16;101996.72;4987488;28;20053;-47
2022/10/29 00:40:07;;;;;;;7.60;2.25;;;;;;;16.42;57.57;101994.38;4981459;28;20387;-46
2022/10/29 00:42:33;;;;;;;9.40;2.13;;;;;;;16.61;57.23;101996.16;4974133;28;20037;-47
2022/10/29 00:45:00;;;;;;;6.43;1.83;;;;;;;16.46;58.02;101990.22;4991095;28;20589;-45
2022/10/29 00:47:30;;;;;;;5.80;2.58;;;;;;;16.56;58.18;102000.56;4975680;28;20022;-46
2022/10/29 00:50:08;;;;;;;6.22;1.50;;;;;;;16.32;59.37;101996.72;4974065;28;20027;-45
2022/10/29 00:52:40;;;;;;;5.85;2.28;;;;;;;16.45;59.25;101999.38;4973849;28;20081;-47
2022/10/29 00:55:08;;;;;;;5.78;2.03;;;;;;;16.51;58.95;102009.31;4988571;28;20031;-46
2022/10/29 00:57:40;;;;;;;8.75;2.05;;;;;;;16.21;59.66;101998.25;4991519;28;20037;-46
2022/10/29 01:00:07;;;;;;;11.43;2.03;;;;;;;16.23;60.28;102006.16;4974009;28;20019;-46
2022/10/29 01:02:37;;;;;;;8.32;2.15;;;;;;;16.12;60.44;102007.66;4973479;28;20106;-46
2022/10/29 01:05:04;;;;;;;4.93;2.03;;;;;;;16.02;60.60;102002.69;4984687;28;20033;-46
2022/10/29 01:07:31;;;;;;;7.13;2.30;;;;;;;16.19;59.52;102004.91;4979320;28;20062;-48
2022/10/29 01:09:57;;;;;;;8.15;2.60;;;;;;;16.17;59.47;101998.91;4970975;28;20164;-46
2022/10/29 01:12:35;;;;;;;7.70;2.40;;;;;;;16.01;60.11;102001.03;4973445;28;20018;-47
2022/10/29 01:15:20;;;;;;;7.13;2.50;;;;;;;16.02;60.60;101994.59;4980945;28;20026;-47
2022/10/29 01:17:46;;;;;;;11.18;2.47;;;;;;;15.81;62.16;102000.25;4975928;28;20031;-47
2022/10/29 01:20:44;;;;;;;5.72;2.63;;;;;;;16.04;61.56;101997.06;4973582;28;20165;-47
2022/10/29 01:23:26;;;;;;;9.90;2.42;;;;;;;15.63;62.62;101995.53;4973486;28;20045;-46
2022/10/29 01:26:04;;;;;;;6.72;2.30;;;;;;;15.85;61.76;101993.41;4984601;28;20035;-47
2022/10/29 01:28:42;;;;;;;7.22;2.38;;;;;;;15.69;62.26;101991.16;4987156;28;20023;-48
2022/10/29 01:31:20;;;;;;;7.72;2.58;;;;;;;15.76;62.33;101990.09;4973199;28;20050;-47
2022/10/29 01:33:49;;;;;;;10.43;2.38;;;;;;;15.89;62.00;101993.81;4973231;28;20037;-45
2022/10/29 01:36:43;;;;;;;6.47;2.17;;;;;;;15.69;62.55;101992.00;4983927;28;20070;-47
2022/10/29 01:39:36;;;;;;;9.32;2.50;;;;;;;15.67;63.09;101988.69;4990819;28;20399;-50
2022/10/29 01:42:16;;;;;;;7.20;3.30;;;;;;;15.61;63.82;101988.69;4992379;28;20023;-49
2022/10/29 01:44:53;;;;;;;9.15;2.80;;;;;;;15.43;64.92;101990.16;4987922;28;20176;-51
2022/10/29 01:47:21;;;;;;;7.85;2.78;;;;;;;15.47;65.16;101987.88;4990656;28;20088;-48
2022/10/29 01:49:58;;;;;;;7.07;2.53;;;;;;;15.27;65.91;101988.75;4991398;28;20034;-47
2022/10/29 01:52:28;;;;;;;9.05;2.50;;;;;;;15.27;66.27;101977.13;4992152;28;20022;-47
2022/10/29 01:54:54;;;;;;;8.20;2.50;;;;;;;14.91;67.54;101981.06;4992740;28;20035;-49
2022/10/29 01:57:33;;;;;;;7.15;2.80;;;;;;;14.89;67.97;101977.75;4991771;28;20054;-47
2022/10/29 02:00:10;;;;;;;7.10;2.63;;;;;;;14.90;67.65;101976.72;4992256;28;20106;-48
2022/10/29 02:02:53;;;;;;;7.43;2.63;;;;;;;15.13;66.95;101981.69;4991537;28;20497;-48
2022/10/29 02:05:45;;;;;;;11.20;2.75;;;;;;;15.03;66.96;101984.78;4984473;28;20254;-47
2022/10/29 02:08:23;;;;;;;11.05;2.92;;;;;;;14.87;67.73;101982.50;4989539;28;20049;-48
2022/10/29 02:11:07;;;;;;;7.78;2.55;;;;;;;15.01;67.05;101992.28;4992426;28;20023;-47
2022/10/29 02:13:40;;;;;;;6.55;2.55;;;;;;;14.95;67.00;101998.50;4991111;28;20150;-47
2022/10/29 02:16:09;;;;;;;6.85;2.75;;;;;;;14.83;66.98;102000.16;4992124;28;20031;-47
2022/10/29 02:18:43;;;;;;;7.13;2.95;;;;;;;14.87;66.90;102006.75;4990393;28;20483;-47
2022/10/29 02:21:09;;;;;;;9.27;2.75;;;;;;;14.65;67.29;102002.59;4992484;28;20026;-50
2022/10/29 02:23:35;;;;;;;7.63;3.05;;;;;;;14.76;66.78;102015.47;4992021;28;20415;-48
2022/10/29 02:26:01;;;;;;;7.57;2.80;;;;;;;14.72;66.60;102016.94;4973132;28;20464;-47
2022/10/29 02:28:28;;;;;;;6.80;2.78;;;;;;;14.62;66.73;102022.69;4972211;28;20081;-47
2022/10/29 02:30:54;;;;;;;8.50;2.53;;;;;;;14.75;66.36;102027.28;4984434;28;20129;-46
2022/10/29 02:33:20;;;;;;;11.57;3.30;;;;;;;14.62;66.58;102030.78;4992259;28;20022;-48
2022/10/29 02:35:46;;;;;;;7.97;2.60;;;;;;;14.65;66.41;102037.63;4978104;28;20062;-45
2022/10/29 02:38:12;;;;;;;8.02;2.92;;;;;;;14.73;66.40;102038.28;4983406;28;20110;-46
2022/10/29 02:40:38;;;;;;;10.60;2.95;;;;;;;14.80;66.20;102049.06;4992011;28;20057;-47
2022/10/29 02:43:05;;;;;;;6.28;2.40;;;;;;;14.63;66.84;102043.22;4992100;28;20019;-47
2022/10/29 02:45:31;;;;;;;15.05;3.30;;;;;;;14.49;67.20;102045.06;4991131;28;20061;-48
2022/10/29 02:47:57;;;;;;;9.60;3.30;;;;;;;14.35;67.61;102054.09;4990924;28;20035;-46
2022/10/29 02:50:23;;;;;;;9.30;3.13;;;;;;;14.31;67.81;102052.81;4975437;28;20507;-46
2022/10/29 02:52:49;;;;;;;7.10;3.30;;;;;;;14.22;68.27;102062.13;4976705;28;20031;-46
2022/10/29 02:55:16;;;;;;;11.70;3.90;;;;;;;14.28;67.84;102066.69;4973917;28;20061;-47
2022/10/29 02:57:45;;;;;;;10.48;4.43;;;;;;;14.26;67.81;102068.75;4989984;28;20062;-46
2022/10/29 03:00:13;;;;;;;9.68;4.90;;;;;;;14.31;67.64;102066.28;4991474;28;20061;-46
2022/10/29 03:02:39;;;;;;;13.02;4.30;;;;;;;14.17;67.77;102069.97;4991507;28;20022;-45
2022/10/29 03:05:06;;;;;;;12.45;4.07;;;;;;;14.40;67.38;102065.09;4990419;28;20149;-46
2022/10/29 03:07:37;;;;;;;7.18;3.30;;;;;;;14.18;68.14;102075.13;4988877;28;20045;-46
2022/10/29 03:10:04;;;;;;;11.82;3.47;;;;;;;14.03;68.91;102082.50;4977404;28;20022;-49
2022/10/29 03:12:31;;;;;;;11.25;3.67;;;;;;;14.05;69.31;102093.06;4991463;28;20058;-47
2022/10/29 03:14:57;;;;;;;9.93;3.50;;;;;;;14.09;69.37;102089.78;4991284;28;20418;-47
2022/10/29 03:17:23;;;;;;;7.57;3.15;;;;;;;14.16;69.53;102095.22;4991227;28;20029;-49
2022/10/29 03:19:50;;;;;;;11.38;3.15;;;;;;;13.96;70.79;102093.25;4991566;28;20106;-48
2022/10/29 03:22:16;;;;;;;12.45;3.50;;;;;;;13.98;71.08;102098.41;4991585;28;20030;-47
2022/10/29 03:24:42;;;;;;;9.85;3.42;;;;;;;13.88;71.69;102101.47;4992534;28;20027;-49
2022/10/29 03:27:08;;;;;;;10.55;3.85;;;;;;;13.81;72.36;102111.34;4994562;28;20031;-50
2022/10/29 03:29:34;;;;;;;9.85;3.67;;;;;;;13.82;72.95;102112.19;4995012;28;20033;-49
2022/10/29 03:32:01;;;;;;;8.73;4.32;;;;;;;13.50;74.71;102117.13;4994504;28;20046;-48
2022/10/29 03:34:27;;;;;;;13.13;3.53;;;;;;;13.63;74.25;102114.53;4989603;28;20050;-46
2022/10/29 03:36:53;;;;;;;15.70;3.40;;;;;;;13.39;75.21;102107.72;4975135;28;20018;-50
2022/10/29 03:39:19;;;;;;;10.48;4.47;;;;;;;13.62;74.73;102103.97;4973621;28;20027;-50
2022/10/29 03:41:45;;;;;;;13.25;4.40;;;;;;;13.43;75.77;102103.59;4982124;28;20395;-46
2022/10/29 03:44:11;;;;;;;10.32;4.15;;;;;;;13.28;76.81;102094.81;4990117;28;20037;-46
2022/10/29 03:46:38;;;;;;;12.48;4.00;;;;;;;13.17;77.64;102097.97;4974699;28;20031;-46
2022/10/29 03:49:04;;;;;;;14.52;4.40;;;;;;;13.08;78.04;102089.19;4981179;28;20018;-46
2022/10/29 03:51:30;;;;;;;13.55;3.60;;;;;;;13.10;78.42;102089.00;4979326;28;20502;-47
2022/10/29 03:53:56;;;;;;;15.55;4.53;;;;;;;12.91;78.70;102085.94;4981853;28;20027;-47
2022/10/29 03:56:22;;;;;;;14.77;3.67;;;;;;;12.92;78.81;102081.38;4990249;28;20019;-46
2022/10/29 03:58:48;;;;;;;11.88;3.83;;;;;;;12.93;78.55;102088.41;4975526;28;20074;-46
2022/10/29 04:01:15;;;;;;;14.38;3.35;;;;;;;13.12;77.69;102093.19;4984873;28;20077;-46
2022/10/29 04:03:42;;;;;;;12.38;3.80;;;;;;;13.07;77.85;102100.16;4994367;28;20033;-46
2022/10/29 04:06:11;;;;;;;10.93;4.05;;;;;;;12.97;77.66;102095.09;4994174;28;20562;-47
2022/10/29 04:08:37;;;;;;;9.95;3.58;;;;;;;13.20;76.65;102084.13;4988245;28;20030;-46
2022/10/29 04:11:04;;;;;;;12.20;3.78;;;;;;;13.21;76.51;102077.75;4979784;28;20022;-46
2022/10/29 04:13:30;;;;;;;9.82;3.80;;;;;;;13.13;76.74;102075.19;4994092;28;20116;-47
2022/10/29 04:15:56;;;;;;;10.60;4.18;;;;;;;13.26;76.81;102067.25;4992698;28;20446;-46
2022/10/29 04:18:23;;;;;;;15.23;3.97;;;;;;;13.05;77.89;102078.84;4993659;28;20486;-46
2022/10/29 04:20:49;;;;;;;19.77;4.45;;;;;;;12.76;79.16;102078.94;4993109;28;20076;-48
2022/10/29 04:23:16;;;;;;;13.32;4.25;;;;;;;12.94;78.80;102079.34;4975243;28;20031;-47
2022/10/29 04:25:42;;;;;;;12.73;4.00;;;;;;;12.87;78.93;102084.63;4974461;28;20126;-45
2022/10/29 04:28:08;;;;;;;15.40;4.07;;;;;;;12.88;78.40;102090.84;4974074;28;20027;-49
2022/10/29 04:30:34;;;;;;;14.77;4.30;;;;;;;12.95;77.57;102092.59;4977224;28;20077;-46
2022/10/29 04:33:00;;;;;;;10.00;4.03;;;;;;;12.91;77.48;102096.69;4974416;28;20023;-46
2022/10/29 04:35:28;;;;;;;11.73;4.32;;;;;;;12.92;77.36;102102.88;4973997;28;20102;-46
2022/10/29 04:37:54;;;;;;;15.27;4.50;;;;;;;12.94;77.03;102106.22;4977577;28;20085;-46
2022/10/29 04:40:23;;;;;;;10.57;4.00;;;;;;;13.09;77.25;102098.09;4974002;28;20501;-47
2022/10/29 04:42:49;;;;;;;15.43;4.25;;;;;;;12.75;79.11;102102.28;4974242;28;20494;-46
2022/10/29 04:45:16;;;;;;;12.90;4.15;;;;;;;12.79;79.10;102094.69;4980999;28;20121;-46
2022/10/29 04:47:42;;;;;;;13.57;4.05;;;;;;;12.75;78.97;102091.53;4993151;28;20054;-46
2022/10/29 04:50:08;;;;;;;19.88;3.97;;;;;;;12.68;79.55;102085.28;4992987;28;20026;-46
2022/10/29 04:52:34;;;;;;;13.88;4.18;;;;;;;12.63;79.40;102090.38;4993378;28;20031;-46
2022/10/29 04:55:00;;;;;;;11.20;4.32;;;;;;;12.65;78.10;102097.22;4992438;28;20531;-47
2022/10/29 04:57:27;;;;;;;14.27;4.03;;;;;;;12.63;76.52;102103.81;4992993;28;20098;-47
2022/10/29 04:59:53;;;;;;;11.90;3.60;;;;;;;12.41;76.20;102114.50;4993057;28;20118;-45
2022/10/29 05:02:19;;;;;;;8.88;3.45;;;;;;;12.04;75.96;102115.41;4992178;28;20390;-45
2022/10/29 05:04:45;;;;;;;10.23;3.65;;;;;;;12.03;75.89;102108.38;4992065;28;20112;-47
2022/10/29 05:07:11;;;;;;;8.73;3.00;;;;;;;12.02;75.13;102111.25;4984410;28;20037;-46
2022/10/29 05:09:37;;;;;;;6.35;3.03;;;;;;;12.08;74.81;102107.84;4992195;28;20045;-47
2022/10/29 05:12:04;;;;;;;7.78;3.13;;;;;;;12.09;73.96;102106.81;4993182;28;20035;-48
2022/10/29 05:14:30;;;;;;;6.53;2.67;;;;;;;12.22;73.43;102098.13;4990923;28;20041;-47
2022/10/29 05:16:56;;;;;;;8.68;3.05;;;;;;;11.96;73.55;102103.94;4991837;28;20504;-48
2022/10/29 05:19:22;;;;;;;13.02;3.40;;;;;;;11.72;73.99;102107.69;4992015;28;20027;-47
2022/10/29 05:21:48;;;;;;;12.15;3.90;;;;;;;11.55;74.20;102110.53;4993036;28;20037;-47
2022/10/29 05:24:15;;;;;;;8.23;3.35;;;;;;;11.54;74.46;102114.19;4991766;28;20030;-46
2022/10/29 05:26:41;;;;;;;5.72;2.90;;;;;;;11.59;73.89;102110.97;4991793;28;20030;-49
2022/10/29 05:29:07;;;;;;;7.45;2.53;;;;;;;11.61;74.08;102117.00;4984370;28;20121;-46
2022/10/29 05:31:33;;;;;;;6.45;3.08;;;;;;;11.38;74.60;102130.41;4975588;28;20144;-46
2022/10/29 05:33:59;;;;;;;8.20;2.83;;;;;;;11.51;74.07;102127.16;4992989;28;20030;-45
2022/10/29 05:36:26;;;;;;;14.50;3.17;;;;;;;11.58;73.80;102130.78;4990844;28;20423;-46
2022/10/29 05:38:52;;;;;;;9.68;3.33;;;;;;;11.62;73.49;102126.72;4975049;28;20034;-46
2022/10/29 05:41:18;;;;;;;8.00;2.75;;;;;;;11.62;73.39;102140.13;4972913;28;20050;-45
2022/10/29 05:43:48;;;;;;;8.70;3.60;;;;;;;11.65;73.31;102142.44;4991956;28;20367;-46
2022/10/29 05:46:15;;;;;;;4.45;2.63;;;;;;;11.57;73.26;102134.47;4991208;28;20507;-45
2022/10/29 05:48:41;;;;;;;5.57;2.47;;;;;;;11.45;73.60;102138.59;4975601;28;20423;-46
2022/10/29 05:51:08;;;;;;;6.82;2.80;;;;;;;11.44;73.68;102134.22;4990509;28;20173;-47
2022/10/29 05:53:35;;;;;;;6.93;2.78;;;;;;;11.52;73.00;102140.38;4992271;28;20511;-45
2022/10/29 05:56:01;;;;;;;8.27;2.85;;;;;;;11.46;72.72;102146.47;4990943;28;20042;-47
2022/10/29 05:58:27;;;;;;;7.72;2.90;;;;;;;11.53;72.48;102149.25;4985439;28;20157;-50
2022/10/29 06:00:53;;;;;;;6.10;2.70;;;;;;;11.51;71.99;102145.94;4991294;28;20054;-46
2022/10/29 06:03:21;;;;;;;8.05;3.42;;;;;;;11.49;72.09;102147.94;4989673;28;20443;-46
2022/10/29 06:05:48;;;;;;;8.77;4.07;;;;;;;11.36;72.28;102149.38;4991351;28;20027;-45
2022/10/29 06:08:15;;;;;;;7.43;4.63;;;;;;;11.36;72.02;102152.06;4991614;28;20030;-47
2022/10/29 06:10:41;;;;;;;8.90;4.60;;;;;;;11.43;71.36;102151.34;4991487;28;20039;-46
2022/10/29 06:13:25;;;;;;;10.35;4.28;;;;;;;11.32;72.67;102153.41;4992082;28;20076;-46
2022/10/29 06:15:58;;;;;;;10.35;3.53;;;;;;;11.43;72.22;102162.88;4992091;28;20564;-46
2022/10/29 06:18:26;;;;;;;10.10;3.72;;;;;;;11.64;73.69;102160.38;4981827;28;20029;-45
2022/10/29 06:20:53;;;;;;;12.77;4.38;;;;;;;11.68;75.38;102163.53;5002111;28;20072;-46
2022/10/29 06:23:20;;;;;;;10.40;4.00;;;;;;;11.87;75.94;102167.59;5012200;28;20030;-47
2022/10/29 06:25:46;;;;;;;14.63;5.35;;;;;;;11.92;76.89;102173.25;5011987;28;20061;-47
2022/10/29 06:28:15;;;;;;;19.95;4.88;;;;;;;11.87;77.27;102173.78;5005176;28;20046;-47
2022/10/29 06:30:47;;;;;;;14.00;4.35;;;;;;;11.96;78.14;102165.66;4991458;28;20054;-46
2022/10/29 06:33:13;;;;;;;14.75;4.95;;;;;;;11.91;79.04;102168.06;4992333;28;20030;-44
2022/10/29 06:35:40;;;;;;;12.73;5.03;;;;;;;11.87;79.60;102165.72;4992134;28;20033;-44
2022/10/29 06:38:06;;;;;;;15.45;4.40;;;;;;;11.85;80.01;102170.47;4991869;28;20058;-45
2022/10/29 06:40:32;;;;;;;10.63;4.50;;;;;;;11.85;80.56;102166.94;4976730;28;20073;-45
2022/10/29 06:43:03;;;;;;;10.25;5.00;;;;;;;11.88;80.45;102170.09;4972593;28;20037;-44
2022/10/29 06:45:30;;;;;;;15.50;5.13;;;;;;;11.83;80.63;102164.44;4975320;28;20484;-45
2022/10/29 06:47:56;;;;;;;17.08;5.68;;;;;;;11.70;81.61;102166.03;4974056;28;20221;-45
2022/10/29 06:50:23;;;;;;;11.68;4.82;;;;;;;11.79;81.52;102173.84;4988814;28;20574;-45
2022/10/29 06:53:00;;;;;;;19.98;5.30;;;;;;;11.85;80.52;102180.34;4991232;28;20030;-44
2022/10/29 06:55:27;;;;;;;9.05;4.72;;;;;;;11.74;81.31;102175.41;4990083;28;20034;-45
2022/10/29 06:57:59;;;;;;;15.65;4.88;;;;;;;11.74;81.92;102170.84;4991804;28;20356;-44
2022/10/29 07:00:25;;;;;;;13.88;5.00;;;;;;;11.82;81.87;102178.03;4992196;28;20113;-45
2022/10/29 07:02:51;;;;;;;16.08;5.18;;;;;;;11.74;82.28;102175.41;4995021;28;20030;-45
2022/10/29 07:05:18;;;;;;;16.08;4.70;;;;;;;11.91;81.95;102173.44;4995673;28;20030;-46
2022/10/29 07:07:44;;;;;;;16.10;4.75;;;;;;;11.85;82.09;102169.63;4994224;28;20026;-44
2022/10/29 07:10:11;;;;;;;15.23;4.38;;;;;;;12.06;81.60;102187.72;4994729;28;20026;-45
2022/10/29 07:12:44;;;;;;;13.48;4.15;;;;;;;11.96;81.45;102187.13;4993202;28;20172;-45
2022/10/29 07:15:11;;;;;;;16.30;4.40;;;;;;;11.89;81.22;102189.72;4995515;28;20033;-44
2022/10/29 07:17:38;;;;;;;17.00;5.22;;;;;;;12.00;80.76;102191.97;4993961;28;20035;-44
2022/10/29 07:20:06;;;;;;;11.98;4.25;;;;;;;12.03;80.60;102183.53;4995396;28;20025;-44
2022/10/29 07:22:33;;;;;;;18.38;5.20;;;;;;;12.12;80.51;102186.97;4985424;28;20034;-45
2022/10/29 07:24:59;;;;;;;12.52;4.43;;;;;;;12.12;80.00;102182.44;5010250;28;20026;-44
2022/10/29 07:27:27;;;;;;;16.48;4.95;;;;;;;12.19;79.90;102187.06;5007547;28;20026;-44
2022/10/29 07:29:53;;;;;;;11.35;4.38;;;;;;;12.19;80.03;102177.16;5014592;28;20026;-44
2022/10/29 07:32:19;;;;;;;11.18;4.45;;;;;;;11.95;80.76;102169.38;4999318;28;20042;-45
2022/10/29 07:34:45;;;;;;;17.17;4.78;;;;;;;11.99;80.61;102173.34;4994680;28;20030;-44
2022/10/29 07:37:12;;;;;;;10.10;4.30;;;;;;;11.88;80.48;102175.47;4993716;28;20572;-44
2022/10/29 07:39:38;;;;;;;10.43;4.47;;;;;;;11.93;80.58;102182.94;4996959;28;20037;-46
2022/10/29 07:42:04;;;;;;;14.18;4.30;;;;;;;12.04;79.62;102189.72;4994265;28;20122;-45
2022/10/29 07:44:30;;;;;;;11.82;4.40;;;;;;;12.10;78.78;102202.41;4994566;28;20027;-44
2022/10/29 07:46:56;;;;;;;12.40;4.28;;;;;;;12.05;78.47;102202.16;4993148;28;20084;-44
2022/10/29 07:49:23;;;;;;;15.48;4.75;;;;;;;12.05;78.58;102210.19;4993632;28;20037;-44
2022/10/29 07:51:49;;;;;;;17.45;4.65;;;;;;;12.00;78.69;102209.91;4993496;28;20126;-46
2022/10/29 07:54:15;;;;;;;11.60;4.28;;;;;;;11.97;78.56;102218.31;4993316;28;20034;-45
2022/10/29 07:56:41;;;;;;;11.63;4.07;;;;;;;11.99;78.53;102213.59;4994033;28;20034;-44
2022/10/29 07:59:08;;;;;;;17.42;4.82;;;;;;;11.92;79.11;102209.97;4994297;28;20438;-45
2022/10/29 08:01:34;;;;;;;11.20;4.43;;;;;;;11.81;79.39;102192.41;4994144;28;20022;-45
2022/10/29 08:04:00;;;;;;;13.55;4.13;;;;;;;11.88;79.92;102196.06;4993491;28;20035;-48
2022/10/29 08:06:26;;;;;;;9.57;4.30;;;;;;;11.74;80.65;102188.81;4992218;28;20023;-45
2022/10/29 08:08:54;;;;;;;14.55;4.57;;;;;;;11.69;80.58;102180.47;4994256;28;20022;-45
2022/10/29 08:11:21;;;;;;;13.65;4.65;;;;;;;11.64;80.69;102183.69;4992669;28;20378;-45
2022/10/29 08:13:48;;;;;;;13.40;4.30;;;;;;;11.77;80.19;102178.56;4993718;28;20091;-50
2022/10/29 08:16:14;;;;;;;18.67;4.72;;;;;;;11.61;80.42;102167.97;4992334;28;20038;-47
2022/10/29 08:18:40;;;;;;;15.10;5.15;;;;;;;11.53;81.00;102176.88;4992523;28;20038;-45
2022/10/29 08:21:06;;;;;;;12.10;4.88;;;;;;;11.68;80.56;102168.06;4993918;28;20032;-49
2022/10/29 08:23:32;;;;;;;15.85;4.93;;;;;;;11.71;80.41;102163.16;4987613;28;20030;-49
2022/10/29 08:25:59;;;;;;;12.10;5.53;;;;;;;11.82;80.28;102172.66;4973136;28;20034;-49
2022/10/29 08:28:25;;;;;;;14.77;4.95;;;;;;;11.68;80.21;102171.59;4981459;28;20486;-49
2022/10/29 08:30:51;;;;;;;11.98;4.63;;;;;;;11.58;80.55;102168.31;4992370;28;20137;-48
2022/10/29 08:33:19;;;;;;;12.63;5.10;;;;;;;11.52;80.63;102171.72;4992402;28;20034;-46
2022/10/29 08:35:46;;;;;;;12.80;4.95;;;;;;;11.64;79.85;102179.16;4992634;28;20510;-46
2022/10/29 08:38:12;;;;;;;15.52;5.95;;;;;;;11.84;79.22;102179.53;4992071;28;20109;-48
2022/10/29 08:40:59;;;;;;;10.43;4.70;;;;;;;11.63;79.31;102187.38;4993644;28;20023;-46
2022/10/29 08:43:54;;;;;;;14.77;4.53;;;;;;;11.63;79.15;102188.22;4991870;28;20105;-49
2022/10/29 08:46:45;;;;;;;13.80;4.75;;;;;;;11.47;79.33;102190.19;4984482;28;20049;-45
2022/10/29 08:49:40;;;;;;;16.58;5.13;;;;;;;11.35;79.10;102198.66;4984606;28;20038;-46
2022/10/29 08:52:12;;;;;;;12.63;5.07;;;;;;;11.26;79.31;102207.75;4993288;28;20030;-45
2022/10/29 08:54:40;;;;;;;8.75;4.68;;;;;;;11.24;79.19;102204.41;4987158;28;20034;-45
2022/10/29 08:57:14;;;;;;;10.57;4.75;;;;;;;11.20;78.78;102221.84;4973611;28;20055;-44
2022/10/29 08:59:56;;;;;;;12.20;4.93;;;;;;;11.17;78.63;102216.84;4986633;28;20439;-46
2022/10/29 09:02:22;;;;;;;13.00;4.97;;;;;;;11.25;77.60;102221.31;4991862;28;20475;-45
2022/10/29 09:04:49;;;;;;;11.15;4.63;;;;;;;11.12;77.37;102210.34;4991112;28;20096;-45
2022/10/29 09:07:50;;;;;;;15.23;5.05;;;;;;;11.10;77.16;102214.06;4991005;28;20045;-46
2022/10/29 09:10:45;;;;;;;12.90;4.60;;;;;;;10.94;77.00;102218.63;4962725;28;20084;-46
2022/10/29 09:13:21;;;;;;;11.33;4.90;;;;;;;10.61;77.46;102207.25;4989999;28;20031;-45
2022/10/29 09:15:50;;;;;;;12.07;4.63;;;;;;;10.67;77.39;102207.38;4986243;28;20031;-46
2022/10/29 09:18:39;;;;;;;14.60;4.97;;;;;;;10.67;76.95;102201.19;4996955;23;20061;-48
2022/10/29 09:21:40;;;;;;;12.32;4.50;;;;;;;10.64;77.00;102206.88;4993027;28;20100;-46
2022/10/29 09:24:16;;;;;;;9.25;4.18;;;;;;;10.62;76.61;102204.38;4971531;28;20038;-45
2022/10/29 09:26:55;;;;;;;;;;;;;;;10.61;76.37;102212.59;4982158;28;20479;-45
2022/10/29 09:29:54;;;;;;;9.80;4.20;;;;;;;10.60;75.91;102217.09;4972049;28;19922;-46
2022/10/29 09:32:55;;;;;;;13.25;4.50;;;;;;;10.68;75.28;102216.25;4972368;28;20073;-45
2022/10/29 09:35:32;;;;;;;9.27;4.05;;;;;;;10.62;74.89;102215.09;4965898;28;20035;-45
2022/10/29 09:38:04;;;;;;;9.43;3.90;;;;;;;10.46;75.22;102213.31;4974625;28;20027;-46
2022/10/29 09:40:38;;;;;;;13.10;4.53;;;;;;;10.35;75.86;102212.84;4973098;28;20038;-45
2022/10/29 09:43:39;;;;;;;14.40;4.82;;;;;;;10.22;77.13;102213.34;4972869;28;20085;-45
2022/10/29 09:46:32;;;;;;;11.20;4.38;;;;;;;10.19;77.67;102214.50;4964195;28;20034;-46
2022/10/29 09:49:23;;;;;;;11.23;3.90;;;;;;;10.22;76.99;102216.00;4974045;28;20062;-45
2022/10/29 09:52:00;;;;;;;10.98;4.40;;;;;;;10.41;76.13;102212.97;4972301;28;20023;-45
2022/10/29 09:54:29;;;;;;;10.95;4.03;;;;;;;9.94;78.11;102224.41;4974405;28;20019;-46
2022/10/29 09:56:58;;;;;;;6.40;4.05;;;;;;;9.68;80.57;102219.22;4984494;28;20030;-46
2022/10/29 09:59:38;;;;;;;12.82;3.85;;;;;;;9.75;80.56;102222.88;4992440;28;20534;-45
2022/10/29 10:02:20;;;;;;;8.60;3.42;;;;;;;10.01;79.05;102219.22;4980073;28;20355;-46
2022/10/29 10:04:52;;;;;;;7.10;3.50;;;;;;;9.94;79.14;102218.22;4992067;28;20026;-46
2022/10/29 10:07:19;;;;;;;7.00;4.10;;;;;;;9.96;78.74;102218.88;4990577;28;20031;-45
2022/10/29 10:10:02;;;;;;;9.50;3.60;;;;;;;9.88;78.72;102222.38;4992157;28;20034;-45
2022/10/29 10:12:44;;;;;;;16.73;4.28;;;;;;;9.91;78.59;102219.38;4991568;28;20034;-45
2022/10/29 10:15:19;;;;;;;12.93;3.88;;;;;;;9.97;78.42;102220.53;4989562;28;20027;-47
2022/10/29 10:17:54;;;;;;;11.60;4.25;;;;;;;9.86;78.87;102223.56;4989494;28;20030;-45
2022/10/29 10:20:37;;;;;;;10.52;3.88;;;;;;;9.85;78.81;102209.34;4992058;28;20416;-48
2022/10/29 10:23:25;;;;;;;14.13;4.25;;;;;;;9.86;78.58;102212.84;4990986;28;20034;-45
2022/10/29 10:25:58;;;;;;;9.15;3.83;;;;;;;9.52;80.43;102216.53;4991891;28;20487;-46
2022/10/29 10:28:30;;;;;;;10.13;3.75;;;;;;;9.59;80.18;102206.81;4989170;28;20446;-47
2022/10/29 10:31:14;;;;;;;10.50;3.33;;;;;;;9.29;80.52;102200.28;4991965;28;20110;-47
2022/10/29 10:33:58;;;;;;;8.63;3.85;;;;;;;9.07;81.46;102206.25;4990500;28;20034;-46
2022/10/29 10:36:26;;;;;;;13.57;4.15;;;;;;;9.11;81.88;102204.94;4995717;28;20030;-46
2022/10/29 10:38:57;;;;;;;9.35;3.72;;;;;;;9.40;80.16;102201.81;4994064;28;20030;-45
2022/10/29 10:41:29;;;;;;;8.90;3.40;;;;;;;9.05;81.11;102202.88;4995850;28;20097;-45
2022/10/29 10:44:02;;;;;;;10.52;4.03;;;;;;;8.78;82.44;102190.63;4988823;28;20118;-45
2022/10/29 10:46:37;;;;;;;13.50;4.55;;;;;;;8.90;82.82;102189.34;4995457;28;20522;-46
2022/10/29 10:49:34;;;;;;;12.13;3.58;;;;;;;8.76;82.39;102182.78;4994561;28;20038;-45
2022/10/29 10:52:04;;;;;;;10.73;3.95;;;;;;;8.82;82.19;102181.28;4995813;28;20041;-47
2022/10/29 10:54:37;;;;;;;12.93;4.45;;;;;;;8.78;82.52;102185.31;4993343;28;20430;-45
2022/10/29 10:57:09;;;;;;;12.55;4.60;;;;;;;9.00;81.41;102184.69;4995417;28;20026;-46
2022/10/29 10:59:50;;;;;;;8.23;4.10;;;;;;;8.81;81.78;102185.78;4993001;28;20034;-44
2022/10/29 11:02:32;;;;;;;6.72;3.50;;;;;;;8.68;82.38;102180.91;4981939;28;20027;-45
2022/10/29 11:05:16;;;;;;;11.13;3.83;;;;;;;8.57;82.81;102180.38;4991123;28;20038;-45
2022/10/29 11:08:06;;;;;;;10.27;4.07;;;;;;;8.59;83.17;102181.03;4995382;28;20031;-45
2022/10/29 11:10:42;;;;;;;9.57;4.10;;;;;;;8.78;82.01;102175.44;4955556;28;20046;-46
2022/10/29 11:13:24;;;;;;;14.25;4.40;;;;;;;8.36;83.00;102178.09;4978351;28;20035;-45
2022/10/29 11:15:56;;;;;;;10.02;3.88;;;;;;;8.42;83.17;102177.44;4975016;28;20024;-45
2022/10/29 11:18:35;;;;;;;8.38;3.50;;;;;;;8.72;81.90;102181.44;4988961;28;20046;-46
2022/10/29 11:21:14;;;;;;;8.70;3.67;;;;;;;8.75;81.18;102188.28;4987479;28;20026;-45
2022/10/29 11:24:01;;;;;;;10.93;3.80;;;;;;;8.79;80.71;102192.31;4981924;28;20109;-44
2022/10/29 11:26:34;;;;;;;13.15;3.55;;;;;;;8.81;80.77;102192.97;4973672;28;20496;-44
2022/10/29 11:29:24;;;;;;;9.45;3.50;;;;;;;8.86;80.12;102193.31;4978316;28;21487;-45
2022/10/29 11:32:14;;;;;;;9.50;3.35;;;;;;;8.85;79.84;102195.16;4972453;28;20526;-45
2022/10/29 11:35:22;;;;;;;10.05;3.15;;;;;;;8.79;79.36;102181.63;4976097;28;20030;-44
2022/10/29 11:37:52;;;;;;;7.38;3.92;;;;;;;8.51;81.11;102184.50;4950609;28;20141;-46
2022/10/29 11:40:29;;;;;;;12.02;3.83;;;;;;;8.54;81.29;102173.50;4981143;28;20026;-45